Aviation Digital Data Service (ADDS)

Output produced by METARs form (1535 UTC 23 January 2019)
found at http://www.aviationweather.gov/metar/data/
 
Forecast for: MHTG (TEGUCIGALPA/TON , HN)
Text: TAF MHTG 231025Z 2312/2412 06008KT 9999 BKN024 TX27/2321Z TN15/2412Z
Forecast period: 1200 to 1500 UTC 23 January 2019
Forecast type: FROM: standard forecast or significant change
Winds: from the ENE (60 degrees) at 9 MPH (8 knots; 4.1 m/s)
Visibility: 6 or more miles 10+ km)
Ceiling: 2400 feet AGL
Clouds: broken clouds at 2400 feet AGL
Weather: no significant weather forecast for this period
Text: BECMG 2315/2317 SCT028
Forecast period: 1500 UTC 23 January 2019 to 1200 UTC 24 January 2019
Forecast type: BECOMING: Conditions expected to become as follows by 1700 UTC 23 January 2019
Winds: from the ENE (60 degrees) at 9 MPH (8 knots; 4.1 m/s)
Visibility: 6 or more miles 10+ km)
Ceiling: at least 12,000 feet AGL
Clouds: scattered clouds at 2800 feet AGL
Weather: no significant weather forecast for this period